createdAt,value
2019-02-19T00:02:08.160Z,65.65
2019-02-19T00:04:34.714Z,65.70
2019-02-19T00:07:01.283Z,65.54
2019-02-19T00:09:28.244Z,65.44
2019-02-19T00:11:54.814Z,65.96
2019-02-19T00:14:21.374Z,64.96
2019-02-19T00:16:47.958Z,64.86
2019-02-19T00:19:14.512Z,64.49
2019-02-19T00:21:41.095Z,64.95
2019-02-19T00:24:07.656Z,64.35
2019-02-19T00:26:34.226Z,64.82
2019-02-19T00:29:02.935Z,64.79
2019-02-19T00:31:29.511Z,65.55
2019-02-19T00:33:56.060Z,65.59
2019-02-19T00:36:22.618Z,64.45
2019-02-19T00:38:49.188Z,64.40
2019-02-19T00:41:15.731Z,63.77
2019-02-19T00:43:42.307Z,64.39
2019-02-19T00:46:08.859Z,64.15
2019-02-19T00:48:35.437Z,64.18
2019-02-19T00:51:03.220Z,63.91
2019-02-19T00:53:29.818Z,63.07
2019-02-19T00:55:56.360Z,63.40
2019-02-19T00:58:23.262Z,62.69
2019-02-19T01:00:49.805Z,63.05
2019-02-19T01:03:16.366Z,63.15
2019-02-19T01:05:43.252Z,64.05
2019-02-19T01:08:09.827Z,64.74
2019-02-19T01:10:36.383Z,65.11
2019-02-19T01:13:02.933Z,66.02
2019-02-19T01:15:29.485Z,65.49
2019-02-19T01:17:56.049Z,63.46
2019-02-19T01:20:22.619Z,63.10
2019-02-19T01:22:49.179Z,63.57
2019-02-19T01:25:16.052Z,64.40
2019-02-19T01:27:42.617Z,64.52
2019-02-19T01:30:10.360Z,65.13
2019-02-19T01:32:36.937Z,65.47
2019-02-19T01:35:03.936Z,65.36
2019-02-19T01:37:30.489Z,64.65
2019-02-19T01:39:57.061Z,63.88
2019-02-19T01:42:23.615Z,63.43
2019-02-19T01:44:50.214Z,62.12
2019-02-19T01:47:16.778Z,62.20
2019-02-19T01:49:43.345Z,62.25
2019-02-19T01:52:09.897Z,60.80
2019-02-19T01:54:36.835Z,60.92
2019-02-19T01:57:03.378Z,61.91
2019-02-19T01:59:30.059Z,62.45
2019-02-19T02:01:56.617Z,62.69
2019-02-19T02:04:23.189Z,61.73
2019-02-19T02:06:49.738Z,62.17
2019-02-19T02:09:16.303Z,62.85
2019-02-19T02:11:42.857Z,63.40
2019-02-19T02:14:09.433Z,63.76
2019-02-19T02:16:35.987Z,64.37
2019-02-19T02:19:02.546Z,64.07
2019-02-19T02:21:29.113Z,63.52
2019-02-19T02:23:55.678Z,63.89
2019-02-19T02:26:22.235Z,64.26
2019-02-19T02:28:48.804Z,64.28
2019-02-19T02:31:22.633Z,64.91
2019-02-19T02:33:49.217Z,64.00
2019-02-19T02:36:15.779Z,62.29
2019-02-19T02:38:42.354Z,62.68
2019-02-19T02:41:08.905Z,63.74
2019-02-19T02:43:35.459Z,65.22
2019-02-19T02:46:02.024Z,64.86
2019-02-19T02:48:28.581Z,66.20
2019-02-19T02:50:55.127Z,67.29
2019-02-19T02:53:21.693Z,66.79
2019-02-19T02:55:48.256Z,67.00
2019-02-19T02:58:14.805Z,66.74
2019-02-19T03:00:41.362Z,66.32
2019-02-19T03:03:07.911Z,66.02
2019-02-19T03:05:37.085Z,64.86
2019-02-19T03:08:04.666Z,65.03
2019-02-19T03:10:31.238Z,66.14
2019-02-19T03:12:57.778Z,66.44
2019-02-19T03:15:24.367Z,67.10
2019-02-19T03:17:50.964Z,67.60
2019-02-19T03:20:17.532Z,66.82
2019-02-19T03:22:44.108Z,65.37
2019-02-19T03:25:10.669Z,64.73
2019-02-19T03:27:37.209Z,64.33
2019-02-19T03:30:05.088Z,63.00
2019-02-19T03:32:31.632Z,63.78
2019-02-19T03:34:58.199Z,64.08
2019-02-19T03:37:24.773Z,65.47
2019-02-19T03:39:51.334Z,66.69
2019-02-19T03:42:17.874Z,67.38
2019-02-19T03:44:44.460Z,68.05
2019-02-19T03:47:11.286Z,66.13
2019-02-19T03:49:37.851Z,64.66
2019-02-19T03:52:04.432Z,64.93
2019-02-19T03:54:31.001Z,63.96
2019-02-19T03:57:00.145Z,63.61
2019-02-19T03:59:29.935Z,63.62
2019-02-19T04:01:56.560Z,63.43
2019-02-19T04:04:23.202Z,64.05
2019-02-19T04:06:49.754Z,63.87
2019-02-19T04:09:16.346Z,63.62
2019-02-19T04:11:42.926Z,63.74
2019-02-19T04:14:09.500Z,63.41
2019-02-19T04:16:36.073Z,64.01
2019-02-19T04:19:02.641Z,63.81
2019-02-19T04:21:29.205Z,63.59
2019-02-19T04:23:56.095Z,63.97
2019-02-19T04:26:23.603Z,64.40
2019-02-19T04:28:50.425Z,64.05
2019-02-19T04:31:17.001Z,64.23
2019-02-19T04:33:43.559Z,64.97
2019-02-19T04:36:10.222Z,64.94
2019-02-19T04:38:36.798Z,65.17
2019-02-19T04:41:03.363Z,65.89
2019-02-19T04:43:29.942Z,66.13
2019-02-19T04:45:58.480Z,66.53
2019-02-19T04:48:25.028Z,67.08
2019-02-19T04:50:51.629Z,67.54
2019-02-19T04:53:19.973Z,68.41
2019-02-19T04:55:46.551Z,68.68
2019-02-19T04:58:13.110Z,68.52
2019-02-19T05:00:41.619Z,69.33
2019-02-19T05:03:08.187Z,68.79
2019-02-19T05:05:38.875Z,69.16
2019-02-19T05:08:05.891Z,69.48
2019-02-19T05:10:32.784Z,69.17
2019-02-19T05:12:59.879Z,69.34
2019-02-19T05:15:26.665Z,69.33
2019-02-19T05:17:53.340Z,69.65
2019-02-19T05:20:19.971Z,70.28
2019-02-19T05:22:46.924Z,69.86
2019-02-19T05:25:16.136Z,69.89
2019-02-19T05:27:42.697Z,70.60
2019-02-19T05:30:14.711Z,71.08
2019-02-19T05:32:43.604Z,71.02
2019-02-19T05:35:10.206Z,71.16
2019-02-19T05:37:36.995Z,71.65
2019-02-19T05:40:08.982Z,71.57
2019-02-19T05:42:35.606Z,71.79
2019-02-19T05:45:02.985Z,71.63
2019-02-19T05:47:30.513Z,72.17
2019-02-19T05:49:58.661Z,72.04
2019-02-19T05:52:25.478Z,72.66
2019-02-19T05:54:52.062Z,72.84
2019-02-19T05:57:18.764Z,74.00
2019-02-19T06:02:35.904Z,73.46
2019-02-19T06:05:02.930Z,74.42
2019-02-19T06:07:29.761Z,74.60
2019-02-19T06:09:56.458Z,75.09
2019-02-19T06:12:24.695Z,74.75
2019-02-19T06:14:51.856Z,74.87
2019-02-19T06:17:18.692Z,75.24
2019-02-19T06:19:45.591Z,75.11
2019-02-19T06:22:15.871Z,75.47
2019-02-19T06:24:42.589Z,75.24
2019-02-19T06:27:09.789Z,75.39
2019-02-19T06:29:36.905Z,75.72
2019-02-19T06:32:03.487Z,75.77
2019-02-19T06:34:30.077Z,75.59
2019-02-19T06:36:56.661Z,75.45
2019-02-19T06:39:23.223Z,75.49
2019-02-19T06:41:49.807Z,75.09
2019-02-19T06:44:16.358Z,75.47
2019-02-19T06:46:42.938Z,75.40
2019-02-19T06:49:09.506Z,75.12
2019-02-19T06:51:36.069Z,75.61
2019-02-19T06:54:02.639Z,75.19
2019-02-19T06:56:29.553Z,75.41
2019-02-19T06:58:56.107Z,75.23
2019-02-19T07:01:54.870Z,75.38
2019-02-19T07:04:36.789Z,75.44
2019-02-19T07:07:03.380Z,75.52
2019-02-19T07:09:29.940Z,75.30
2019-02-19T07:11:56.881Z,74.99
2019-02-19T07:14:26.079Z,74.92
2019-02-19T07:16:55.341Z,74.79
2019-02-19T07:19:22.014Z,75.15
2019-02-19T07:21:56.632Z,75.23
2019-02-19T07:24:23.343Z,75.31
2019-02-19T07:26:50.431Z,75.20
2019-02-19T07:29:17.527Z,74.94
2019-02-19T07:31:44.934Z,74.90
2019-02-19T07:34:12.893Z,75.01
2019-02-19T07:36:41.719Z,75.32
2019-02-19T07:39:08.668Z,75.20
2019-02-19T07:41:35.535Z,75.37
2019-02-19T07:44:02.593Z,75.40
2019-02-19T07:46:37.020Z,75.38
2019-02-19T07:49:04.919Z,75.53
2019-02-19T07:51:32.051Z,75.25
2019-02-19T07:53:59.359Z,75.06
2019-02-19T07:56:26.805Z,75.30
2019-02-19T07:58:53.758Z,75.19
2019-02-19T08:01:20.599Z,75.02
2019-02-19T08:03:47.977Z,75.22
2019-02-19T08:06:15.260Z,75.15
2019-02-19T08:08:42.144Z,75.57
2019-02-19T08:11:09.376Z,75.09
2019-02-19T08:13:36.017Z,74.98
2019-02-19T08:16:02.904Z,74.87
2019-02-19T08:18:29.750Z,75.44
2019-02-19T08:20:56.415Z,74.76
2019-02-19T08:23:26.027Z,74.87
2019-02-19T08:25:53.672Z,74.57
2019-02-19T08:28:20.539Z,74.79
2019-02-19T08:30:47.888Z,73.82
2019-02-19T08:33:14.506Z,73.11
2019-02-19T08:35:42.796Z,72.30
2019-02-19T08:38:12.144Z,72.47
2019-02-19T08:40:39.061Z,72.35
2019-02-19T08:43:06.035Z,72.28
2019-02-19T08:45:32.953Z,72.91
2019-02-19T08:48:00.150Z,72.76
2019-02-19T08:50:27.010Z,72.17
2019-02-19T08:52:53.934Z,71.86
2019-02-19T08:55:20.730Z,71.92
2019-02-19T08:57:47.750Z,71.93
2019-02-19T09:00:14.631Z,70.94
2019-02-19T09:02:41.488Z,71.09
2019-02-19T09:05:08.361Z,70.56
2019-02-19T09:07:35.209Z,70.09
2019-02-19T09:10:02.127Z,70.02
2019-02-19T09:12:29.235Z,70.12
2019-02-19T09:14:56.985Z,70.06
2019-02-19T09:17:23.938Z,69.41
2019-02-19T09:19:50.511Z,70.12
2019-02-19T09:22:17.095Z,68.42
2019-02-19T09:24:43.664Z,68.54
2019-02-19T09:27:10.246Z,68.02
2019-02-19T09:29:36.812Z,68.61
2019-02-19T09:32:03.401Z,68.69
2019-02-19T09:34:29.959Z,68.65
2019-02-19T09:36:56.523Z,68.57
2019-02-19T09:39:23.081Z,68.68
2019-02-19T09:41:49.666Z,68.49
2019-02-19T09:44:16.230Z,68.08
2019-02-19T09:46:42.800Z,67.62
2019-02-19T09:49:09.772Z,66.68
2019-02-19T09:51:36.728Z,65.74
2019-02-19T09:54:03.305Z,66.46
2019-02-19T09:56:29.859Z,65.88
2019-02-19T09:58:56.465Z,63.99
2019-02-19T10:01:23.025Z,65.79
2019-02-19T10:03:49.593Z,64.85
2019-02-19T10:06:16.902Z,65.02
2019-02-19T10:08:43.490Z,65.13
2019-02-19T10:11:10.053Z,66.06
2019-02-19T10:13:36.630Z,66.09
2019-02-19T10:16:03.182Z,66.33
2019-02-19T10:18:29.761Z,65.96
2019-02-19T10:20:56.330Z,64.47
2019-02-19T10:23:23.290Z,63.82
2019-02-19T10:25:49.854Z,64.38
2019-02-19T10:28:16.407Z,61.29
2019-02-19T10:30:42.956Z,59.50
2019-02-19T10:33:09.526Z,60.16
2019-02-19T10:35:36.074Z,60.04
2019-02-19T10:38:02.646Z,59.16
2019-02-19T10:40:29.213Z,61.45
2019-02-19T10:42:55.769Z,61.01
2019-02-19T10:45:22.695Z,59.73
2019-02-19T10:47:49.261Z,60.17
2019-02-19T10:50:16.235Z,55.53
2019-02-19T10:52:43.224Z,53.60
2019-02-19T10:55:09.814Z,52.18
2019-02-19T10:57:36.373Z,54.61
2019-02-19T11:00:03.475Z,57.68
2019-02-19T11:02:30.031Z,56.30
2019-02-19T11:04:56.589Z,56.48
2019-02-19T11:07:23.140Z,56.94
2019-02-19T11:09:49.714Z,57.25
2019-02-19T11:12:16.256Z,56.72
2019-02-19T11:14:42.840Z,57.93
2019-02-19T11:17:09.408Z,57.92
2019-02-19T11:19:59.914Z,58.36
2019-02-19T11:22:26.486Z,58.71
2019-02-19T11:24:53.764Z,58.01
2019-02-19T11:27:22.101Z,59.01
2019-02-19T11:29:49.050Z,59.48
2019-02-19T11:32:16.001Z,59.30
2019-02-19T11:34:42.579Z,59.03
2019-02-19T11:37:09.143Z,58.72
2019-02-19T11:39:36.005Z,57.07
2019-02-19T11:42:07.358Z,58.35
2019-02-19T11:44:37.463Z,59.23
2019-02-19T11:47:07.201Z,58.36
2019-02-19T11:49:34.509Z,58.19
2019-02-19T11:52:01.064Z,57.89
2019-02-19T11:54:27.653Z,58.44
2019-02-19T11:56:54.216Z,58.83
2019-02-19T11:59:21.041Z,59.02
2019-02-19T12:01:47.798Z,58.62
2019-02-19T12:04:15.313Z,58.92
2019-02-19T12:06:41.862Z,58.21
2019-02-19T12:09:08.836Z,57.05
2019-02-19T12:11:43.819Z,57.18
2019-02-19T12:14:10.758Z,58.22
2019-02-19T12:16:37.329Z,54.53
2019-02-19T12:19:03.910Z,55.45
2019-02-19T12:21:30.504Z,56.63
2019-02-19T12:23:57.491Z,55.58
2019-02-19T12:26:24.463Z,55.30
2019-02-19T12:28:51.038Z,54.83
2019-02-19T12:31:17.611Z,54.17
2019-02-19T12:33:44.166Z,52.21
2019-02-19T12:36:10.741Z,54.07
2019-02-19T12:38:37.293Z,54.81
2019-02-19T12:41:03.872Z,55.16
2019-02-19T12:43:30.414Z,53.62
2019-02-19T12:45:56.984Z,50.13
2019-02-19T12:48:23.545Z,51.18
2019-02-19T12:50:50.113Z,54.25
2019-02-19T12:53:17.319Z,54.79
2019-02-19T12:55:43.900Z,55.55
2019-02-19T12:58:10.451Z,55.81
2019-02-19T13:00:37.048Z,56.47
2019-02-19T13:03:04.264Z,57.25
2019-02-19T13:05:30.852Z,56.92
2019-02-19T13:07:57.408Z,56.29
2019-02-19T13:10:24.272Z,56.23
2019-02-19T13:12:50.815Z,56.26
2019-02-19T13:15:17.413Z,56.16
2019-02-19T13:17:43.983Z,54.81
2019-02-19T13:20:11.560Z,54.22
2019-02-19T13:22:38.154Z,55.08
2019-02-19T13:25:05.261Z,56.09
2019-02-19T13:27:31.837Z,56.60
2019-02-19T13:29:58.388Z,55.80
2019-02-19T13:32:24.957Z,56.18
2019-02-19T13:34:51.925Z,56.76
2019-02-19T13:37:18.784Z,56.13
2019-02-19T13:39:45.356Z,54.57
2019-02-19T13:42:11.904Z,53.43
2019-02-19T13:44:38.463Z,51.80
2019-02-19T13:47:05.044Z,51.15
2019-02-19T13:49:31.585Z,51.98
2019-02-19T13:52:03.701Z,52.71
2019-02-19T13:54:34.667Z,52.10
2019-02-19T13:57:01.243Z,52.65
2019-02-19T13:59:27.884Z,53.03
2019-02-19T14:01:55.203Z,48.65
2019-02-19T14:04:22.092Z,48.88
2019-02-19T14:06:48.677Z,50.09
2019-02-19T14:09:15.233Z,51.08
2019-02-19T14:11:42.099Z,52.52
2019-02-19T14:14:28.317Z,53.55
2019-02-19T14:17:04.102Z,53.94
2019-02-19T14:19:53.630Z,54.29
2019-02-19T14:22:54.536Z,53.76
2019-02-19T14:25:43.121Z,54.16
2019-02-19T14:28:29.245Z,54.92
2019-02-19T14:31:08.996Z,54.47
2019-02-19T14:34:03.764Z,54.29
2019-02-19T14:37:07.812Z,53.95
2019-02-19T14:40:10.538Z,54.00
2019-02-19T14:42:55.548Z,54.50
2019-02-19T14:45:53.767Z,54.28
2019-02-19T14:48:38.781Z,54.35
2019-02-19T14:51:23.290Z,54.55
2019-02-19T14:54:13.891Z,54.68
2019-02-19T14:57:04.651Z,54.86
2019-02-19T14:59:49.531Z,55.05
2019-02-19T15:02:38.275Z,54.82
2019-02-19T15:05:23.036Z,54.98
2019-02-19T15:08:11.966Z,55.23
2019-02-19T15:11:04.463Z,54.91
2019-02-19T15:13:55.470Z,55.14
2019-02-19T15:16:39.210Z,55.40
2019-02-19T15:19:43.579Z,55.48
2019-02-19T15:22:32.752Z,55.70
2019-02-19T15:25:13.551Z,55.90
2019-02-19T15:27:51.029Z,56.06
2019-02-19T15:30:24.530Z,56.72
2019-02-19T15:33:22.546Z,56.87
2019-02-19T15:36:26.874Z,57.40
2019-02-19T15:39:11.563Z,57.32
2019-02-19T15:41:50.752Z,57.70
2019-02-19T15:44:35.179Z,57.03
2019-02-19T15:47:25.165Z,57.33
2019-02-19T15:50:04.789Z,57.52
2019-02-19T15:52:44.768Z,57.38
2019-02-19T15:55:30.952Z,57.74
2019-02-19T15:58:19.704Z,57.85
2019-02-19T16:01:04.248Z,58.06
2019-02-19T16:03:46.519Z,58.45
2019-02-19T16:06:27.266Z,58.64
2019-02-19T16:09:13.162Z,58.22
2019-02-19T16:11:56.609Z,57.87
2019-02-19T16:14:44.328Z,58.09
2019-02-19T16:17:33.135Z,58.13
2019-02-19T16:20:05.786Z,58.37
2019-02-19T16:22:48.938Z,58.58
2019-02-19T16:25:27.710Z,59.01
2019-02-19T16:28:19.788Z,58.98
2019-02-19T16:31:04.244Z,59.34
2019-02-19T16:33:40.999Z,59.40
2019-02-19T16:36:14.177Z,59.54
2019-02-19T16:38:49.334Z,59.26
2019-02-19T16:41:47.340Z,59.52
2019-02-19T16:44:21.439Z,59.73
2019-02-19T16:47:07.618Z,59.82
2019-02-19T16:49:56.618Z,59.71
2019-02-19T16:52:38.656Z,60.11
2019-02-19T16:55:12.593Z,59.95
2019-02-19T16:57:49.983Z,59.91
2019-02-19T17:00:26.944Z,59.77
2019-02-19T17:03:06.010Z,59.66
2019-02-19T17:05:50.632Z,59.83
2019-02-19T17:08:22.625Z,59.73
2019-02-19T17:11:17.435Z,59.96
2019-02-19T17:14:18.648Z,60.10
2019-02-19T17:17:10.658Z,60.21
2019-02-19T17:20:05.677Z,60.30
2019-02-19T17:22:38.207Z,60.20
2019-02-19T17:25:36.732Z,60.01
2019-02-19T17:28:25.214Z,60.31
2019-02-19T17:31:20.031Z,60.24
2019-02-19T17:34:18.306Z,60.12
2019-02-19T17:37:04.449Z,59.92
2019-02-19T17:39:53.223Z,60.03
2019-02-19T17:42:48.276Z,60.19
2019-02-19T17:45:21.061Z,59.88
2019-02-19T17:48:17.886Z,59.65
2019-02-19T17:51:04.102Z,59.63
2019-02-19T17:53:59.210Z,59.75
2019-02-19T17:56:36.885Z,59.68
2019-02-19T17:59:21.641Z,59.81
2019-02-19T18:01:54.534Z,60.12
2019-02-19T18:04:40.735Z,60.18
2019-02-19T18:07:32.476Z,59.95
2019-02-19T18:10:17.250Z,59.87
2019-02-19T18:12:57.722Z,60.22
2019-02-19T18:16:02.035Z,60.39
2019-02-19T18:18:48.238Z,60.61
2019-02-19T18:21:15.245Z,60.65
2019-02-19T18:23:41.793Z,60.66
2019-02-19T18:26:08.334Z,60.90
2019-02-19T18:28:34.860Z,60.85
2019-02-19T18:31:01.410Z,60.63
2019-02-19T18:33:27.988Z,61.21
2019-02-19T18:35:54.556Z,61.14
2019-02-19T18:38:21.090Z,61.16
2019-02-19T18:40:47.651Z,61.25
2019-02-19T18:43:14.184Z,61.37
2019-02-19T18:45:40.742Z,61.28
2019-02-19T18:48:07.280Z,61.63
2019-02-19T18:50:33.836Z,62.02
2019-02-19T18:53:00.391Z,61.84
2019-02-19T18:55:26.983Z,61.99
2019-02-19T18:57:53.493Z,61.86
2019-02-19T19:00:20.060Z,61.90
2019-02-19T19:02:46.631Z,61.62
2019-02-19T19:05:13.156Z,61.87
2019-02-19T19:07:39.793Z,62.17
2019-02-19T19:10:07.419Z,62.15
2019-02-19T19:12:33.955Z,62.39
2019-02-19T19:15:00.568Z,61.95
2019-02-19T19:17:27.163Z,62.03
2019-02-19T19:19:53.724Z,61.92
2019-02-19T19:22:20.314Z,61.69
2019-02-19T19:24:46.864Z,62.04
2019-02-19T19:27:13.430Z,61.96
2019-02-19T19:29:39.961Z,61.91
2019-02-19T19:32:06.515Z,62.07
2019-02-19T19:34:33.057Z,62.02
2019-02-19T19:36:59.617Z,61.96
2019-02-19T19:39:26.134Z,61.87
2019-02-19T19:41:52.681Z,62.09
2019-02-19T19:44:19.207Z,62.28
2019-02-19T19:46:45.785Z,62.31
2019-02-19T19:49:12.330Z,62.68
2019-02-19T19:51:38.880Z,62.83
2019-02-19T19:54:05.449Z,63.06
2019-02-19T19:56:31.972Z,63.09
2019-02-19T19:58:58.583Z,63.15
2019-02-19T20:01:25.130Z,63.33
2019-02-19T20:03:51.697Z,63.08
2019-02-19T20:06:18.265Z,63.27
2019-02-19T20:08:44.801Z,63.49
2019-02-19T20:11:11.358Z,64.11
2019-02-19T20:13:37.901Z,63.86
2019-02-19T20:16:04.466Z,64.12
2019-02-19T20:18:38.969Z,64.44
2019-02-19T20:20:59.488Z,64.53
2019-02-19T20:23:26.043Z,64.25
2019-02-19T20:25:52.565Z,64.21
2019-02-19T20:28:19.113Z,64.22
2019-02-19T20:30:45.651Z,63.97
2019-02-19T20:33:12.212Z,64.04
2019-02-19T20:35:38.770Z,64.39
2019-02-19T20:38:05.324Z,63.91
2019-02-19T20:40:31.889Z,64.01
2019-02-19T20:42:58.457Z,63.94
2019-02-19T20:45:25.011Z,63.63
2019-02-19T20:47:51.579Z,63.68
2019-02-19T20:50:18.155Z,63.93
2019-02-19T20:52:44.711Z,64.12
2019-02-19T20:55:11.678Z,63.87
2019-02-19T20:57:38.216Z,64.33
2019-02-19T21:00:08.867Z,64.45
2019-02-19T21:02:35.399Z,64.05
2019-02-19T21:05:01.957Z,63.83
2019-02-19T21:07:28.511Z,64.37
2019-02-19T21:09:55.059Z,64.37
2019-02-19T21:12:21.613Z,64.27
2019-02-19T21:14:48.145Z,64.52
2019-02-19T21:17:14.683Z,64.76
2019-02-19T21:19:41.346Z,64.87
2019-02-19T21:22:07.899Z,65.26
2019-02-19T21:24:34.461Z,65.45
2019-02-19T21:27:01.016Z,65.48
2019-02-19T21:29:27.581Z,65.70
2019-02-19T21:31:54.124Z,65.99
2019-02-19T21:34:20.707Z,66.28
2019-02-19T21:36:47.242Z,66.38
2019-02-19T21:39:13.800Z,66.71
2019-02-19T21:41:40.387Z,66.61
2019-02-19T21:44:06.960Z,66.39
2019-02-19T21:46:33.496Z,66.70
2019-02-19T21:49:00.052Z,67.03
2019-02-19T21:51:26.589Z,67.31
2019-02-19T21:53:53.149Z,67.61
2019-02-19T21:56:19.687Z,67.56
2019-02-19T21:58:46.264Z,67.51
2019-02-19T22:01:12.799Z,67.95
2019-02-19T22:03:39.364Z,68.15
2019-02-19T22:06:05.941Z,68.50
2019-02-19T22:08:32.492Z,68.99
2019-02-19T22:10:59.049Z,68.51
2019-02-19T22:13:25.615Z,68.72
2019-02-19T22:15:52.155Z,68.81
2019-02-19T22:18:18.710Z,69.05
2019-02-19T22:20:55.750Z,69.12
2019-02-19T22:23:22.326Z,69.65
2019-02-19T22:25:48.890Z,69.65
2019-02-19T22:28:15.440Z,69.77
2019-02-19T22:30:41.992Z,70.26
2019-02-19T22:33:08.534Z,70.22
2019-02-19T22:35:35.106Z,70.48
2019-02-19T22:38:01.649Z,70.51
2019-02-19T22:40:28.208Z,70.78
2019-02-19T22:42:54.744Z,70.77
2019-02-19T22:45:21.323Z,71.02
2019-02-19T22:47:53.372Z,71.16
2019-02-19T22:50:16.384Z,71.17
2019-02-19T22:52:42.885Z,71.17
2019-02-19T22:55:29.098Z,71.37
2019-02-19T22:57:55.636Z,71.54
2019-02-19T23:00:40.341Z,72.02
2019-02-19T23:03:06.908Z,72.02
2019-02-19T23:05:33.522Z,71.83
2019-02-19T23:08:00.073Z,72.05
2019-02-19T23:10:26.642Z,72.16
2019-02-19T23:12:53.233Z,72.36
2019-02-19T23:15:19.773Z,72.79
2019-02-19T23:17:46.350Z,72.43
2019-02-19T23:20:12.913Z,72.69
2019-02-19T23:22:39.485Z,72.73
2019-02-19T23:25:06.061Z,72.70
2019-02-19T23:27:32.614Z,72.60
2019-02-19T23:29:59.170Z,72.62
2019-02-19T23:32:25.718Z,72.60
2019-02-19T23:35:12.032Z,72.60
2019-02-19T23:37:38.925Z,72.19
2019-02-19T23:40:05.522Z,72.97
2019-02-19T23:42:32.095Z,72.97
2019-02-19T23:44:58.674Z,73.01
2019-02-19T23:47:25.242Z,72.77
2019-02-19T23:49:51.788Z,72.68
2019-02-19T23:52:18.337Z,72.54
2019-02-19T23:54:44.915Z,72.64
2019-02-19T23:57:11.453Z,72.78
2019-02-19T23:59:38.022Z,72.78
